sensor_id;sensor_type;location;lat;lon;timestamp;P1;durP1;ratioP1;P2;durP2;ratioP2
12852;SDS011;6495;51.808;7.478;2023-05-24T00:01:58;4.07;;;1.75;;
12852;SDS011;6495;51.808;7.478;2023-05-24T00:04:56;4.60;;;1.40;;
12852;SDS011;6495;51.808;7.478;2023-05-24T00:08:08;5.55;;;1.40;;
12852;SDS011;6495;51.808;7.478;2023-05-24T00:10:49;6.05;;;1.65;;
12852;SDS011;6495;51.808;7.478;2023-05-24T00:13:29;5.78;;;1.30;;
12852;SDS011;6495;51.808;7.478;2023-05-24T00:16:14;7.65;;;1.80;;
12852;SDS011;6495;51.808;7.478;2023-05-24T00:18:52;3.10;;;1.40;;
12852;SDS011;6495;51.808;7.478;2023-05-24T00:21:32;5.25;;;1.63;;
12852;SDS011;6495;51.808;7.478;2023-05-24T00:24:18;6.40;;;1.33;;
12852;SDS011;6495;51.808;7.478;2023-05-24T00:27:00;2.50;;;1.60;;
12852;SDS011;6495;51.808;7.478;2023-05-24T00:29:37;3.40;;;1.35;;
12852;SDS011;6495;51.808;7.478;2023-05-24T00:32:20;4.53;;;1.15;;
12852;SDS011;6495;51.808;7.478;2023-05-24T00:35:17;3.80;;;1.38;;
12852;SDS011;6495;51.808;7.478;2023-05-24T00:37:52;5.18;;;1.63;;
12852;SDS011;6495;51.808;7.478;2023-05-24T00:40:27;4.22;;;1.45;;
12852;SDS011;6495;51.808;7.478;2023-05-24T00:43:06;6.47;;;1.67;;
12852;SDS011;6495;51.808;7.478;2023-05-24T00:45:58;3.42;;;1.38;;
12852;SDS011;6495;51.808;7.478;2023-05-24T00:48:46;4.93;;;1.67;;
12852;SDS011;6495;51.808;7.478;2023-05-24T00:51:22;6.38;;;1.50;;
12852;SDS011;6495;51.808;7.478;2023-05-24T00:54:01;5.63;;;1.73;;
12852;SDS011;6495;51.808;7.478;2023-05-24T00:56:46;3.53;;;1.60;;
12852;SDS011;6495;51.808;7.478;2023-05-24T00:59:30;4.35;;;1.83;;
12852;SDS011;6495;51.808;7.478;2023-05-24T01:02:11;5.20;;;1.40;;
12852;SDS011;6495;51.808;7.478;2023-05-24T01:05:02;4.03;;;1.38;;
12852;SDS011;6495;51.808;7.478;2023-05-24T01:08:00;6.90;;;1.55;;
12852;SDS011;6495;51.808;7.478;2023-05-24T01:10:49;5.97;;;1.52;;
12852;SDS011;6495;51.808;7.478;2023-05-24T01:13:42;3.78;;;1.23;;
12852;SDS011;6495;51.808;7.478;2023-05-24T01:16:47;4.25;;;1.45;;
12852;SDS011;6495;51.808;7.478;2023-05-24T01:19:54;5.10;;;1.40;;
12852;SDS011;6495;51.808;7.478;2023-05-24T01:32:17;2.70;;;1.27;;
12852;SDS011;6495;51.808;7.478;2023-05-24T01:35:11;3.80;;;1.27;;
12852;SDS011;6495;51.808;7.478;2023-05-24T01:37:55;3.70;;;1.40;;
12852;SDS011;6495;51.808;7.478;2023-05-24T01:40:46;2.17;;;1.27;;
12852;SDS011;6495;51.808;7.478;2023-05-24T01:43:58;6.28;;;1.45;;
12852;SDS011;6495;51.808;7.478;2023-05-24T01:47:00;4.30;;;1.52;;
12852;SDS011;6495;51.808;7.478;2023-05-24T01:49:48;9.93;;;1.40;;
12852;SDS011;6495;51.808;7.478;2023-05-24T01:52:25;3.90;;;1.40;;
12852;SDS011;6495;51.808;7.478;2023-05-24T01:55:05;2.92;;;1.40;;
12852;SDS011;6495;51.808;7.478;2023-05-24T01:57:42;3.75;;;1.63;;
12852;SDS011;6495;51.808;7.478;2023-05-24T02:00:20;3.30;;;1.42;;
12852;SDS011;6495;51.808;7.478;2023-05-24T02:02:53;3.30;;;1.40;;
12852;SDS011;6495;51.808;7.478;2023-05-24T02:05:30;2.42;;;1.35;;
12852;SDS011;6495;51.808;7.478;2023-05-24T02:08:07;8.55;;;1.70;;
12852;SDS011;6495;51.808;7.478;2023-05-24T02:10:47;6.10;;;1.45;;
12852;SDS011;6495;51.808;7.478;2023-05-24T02:13:17;2.83;;;1.25;;
12852;SDS011;6495;51.808;7.478;2023-05-24T02:18:44;5.28;;;1.67;;
12852;SDS011;6495;51.808;7.478;2023-05-24T02:21:19;6.28;;;1.73;;
12852;SDS011;6495;51.808;7.478;2023-05-24T02:23:53;3.53;;;1.35;;
12852;SDS011;6495;51.808;7.478;2023-05-24T02:26:22;2.78;;;1.10;;
12852;SDS011;6495;51.808;7.478;2023-05-24T02:28:57;2.95;;;1.65;;
12852;SDS011;6495;51.808;7.478;2023-05-24T02:31:31;8.65;;;1.65;;
12852;SDS011;6495;51.808;7.478;2023-05-24T02:34:08;5.75;;;1.92;;
12852;SDS011;6495;51.808;7.478;2023-05-24T02:36:54;2.85;;;1.40;;
12852;SDS011;6495;51.808;7.478;2023-05-24T02:39:28;2.92;;;1.65;;
12852;SDS011;6495;51.808;7.478;2023-05-24T02:42:08;3.00;;;1.20;;
12852;SDS011;6495;51.808;7.478;2023-05-24T02:44:43;1.95;;;1.48;;
12852;SDS011;6495;51.808;7.478;2023-05-24T02:47:18;2.72;;;1.65;;
12852;SDS011;6495;51.808;7.478;2023-05-24T02:50:01;2.65;;;1.25;;
12852;SDS011;6495;51.808;7.478;2023-05-24T02:52:33;2.17;;;1.35;;
12852;SDS011;6495;51.808;7.478;2023-05-24T02:55:11;4.15;;;1.70;;
12852;SDS011;6495;51.808;7.478;2023-05-24T02:57:42;2.00;;;1.73;;
12852;SDS011;6495;51.808;7.478;2023-05-24T03:00:11;5.83;;;1.73;;
12852;SDS011;6495;51.808;7.478;2023-05-24T03:02:42;6.00;;;1.80;;
12852;SDS011;6495;51.808;7.478;2023-05-24T03:05:14;4.80;;;1.60;;
12852;SDS011;6495;51.808;7.478;2023-05-24T03:07:43;5.47;;;1.60;;
12852;SDS011;6495;51.808;7.478;2023-05-24T03:10:11;2.07;;;1.67;;
12852;SDS011;6495;51.808;7.478;2023-05-24T03:12:41;5.53;;;1.98;;
12852;SDS011;6495;51.808;7.478;2023-05-24T03:15:16;7.32;;;2.10;;
12852;SDS011;6495;51.808;7.478;2023-05-24T03:17:48;10.87;;;2.17;;
12852;SDS011;6495;51.808;7.478;2023-05-24T03:20:19;3.70;;;1.73;;
12852;SDS011;6495;51.808;7.478;2023-05-24T03:22:55;5.70;;;2.03;;
12852;SDS011;6495;51.808;7.478;2023-05-24T03:25:31;4.65;;;2.22;;
12852;SDS011;6495;51.808;7.478;2023-05-24T03:28:04;4.65;;;1.80;;
12852;SDS011;6495;51.808;7.478;2023-05-24T03:30:35;7.83;;;2.10;;
12852;SDS011;6495;51.808;7.478;2023-05-24T03:33:10;7.57;;;2.10;;
12852;SDS011;6495;51.808;7.478;2023-05-24T03:35:43;3.97;;;1.77;;
12852;SDS011;6495;51.808;7.478;2023-05-24T03:38:11;5.47;;;1.73;;
12852;SDS011;6495;51.808;7.478;2023-05-24T03:40:42;7.43;;;1.87;;
12852;SDS011;6495;51.808;7.478;2023-05-24T03:43:19;3.30;;;1.80;;
12852;SDS011;6495;51.808;7.478;2023-05-24T03:45:53;5.68;;;1.90;;
12852;SDS011;6495;51.808;7.478;2023-05-24T03:48:21;3.17;;;2.10;;
12852;SDS011;6495;51.808;7.478;2023-05-24T03:50:52;3.67;;;2.13;;
12852;SDS011;6495;51.808;7.478;2023-05-24T03:53:20;3.40;;;1.95;;
12852;SDS011;6495;51.808;7.478;2023-05-24T03:55:49;3.83;;;1.90;;
12852;SDS011;6495;51.808;7.478;2023-05-24T03:58:17;5.28;;;1.75;;
12852;SDS011;6495;51.808;7.478;2023-05-24T04:00:48;5.90;;;2.23;;
12852;SDS011;6495;51.808;7.478;2023-05-24T04:03:17;3.28;;;1.70;;
12852;SDS011;6495;51.808;7.478;2023-05-24T04:05:46;2.23;;;1.57;;
12852;SDS011;6495;51.808;7.478;2023-05-24T04:08:24;4.47;;;2.35;;
12852;SDS011;6495;51.808;7.478;2023-05-24T04:10:53;8.00;;;1.98;;
12852;SDS011;6495;51.808;7.478;2023-05-24T04:13:21;9.65;;;2.03;;
12852;SDS011;6495;51.808;7.478;2023-05-24T04:15:49;10.02;;;2.50;;
12852;SDS011;6495;51.808;7.478;2023-05-24T04:18:17;9.15;;;2.08;;
12852;SDS011;6495;51.808;7.478;2023-05-24T04:20:47;4.82;;;1.90;;
12852;SDS011;6495;51.808;7.478;2023-05-24T04:23:22;6.82;;;2.30;;
12852;SDS011;6495;51.808;7.478;2023-05-24T04:25:50;3.70;;;1.83;;
12852;SDS011;6495;51.808;7.478;2023-05-24T04:28:18;4.37;;;2.00;;
12852;SDS011;6495;51.808;7.478;2023-05-24T04:30:47;6.07;;;2.20;;
12852;SDS011;6495;51.808;7.478;2023-05-24T04:33:16;5.40;;;1.90;;
12852;SDS011;6495;51.808;7.478;2023-05-24T04:35:45;5.17;;;2.30;;
12852;SDS011;6495;51.808;7.478;2023-05-24T04:38:13;8.07;;;2.03;;
12852;SDS011;6495;51.808;7.478;2023-05-24T04:40:43;3.87;;;2.00;;
12852;SDS011;6495;51.808;7.478;2023-05-24T04:43:12;5.67;;;1.87;;
12852;SDS011;6495;51.808;7.478;2023-05-24T04:45:40;5.80;;;2.27;;
12852;SDS011;6495;51.808;7.478;2023-05-24T04:48:08;5.33;;;2.43;;
12852;SDS011;6495;51.808;7.478;2023-05-24T04:50:36;4.63;;;2.05;;
12852;SDS011;6495;51.808;7.478;2023-05-24T04:53:04;7.83;;;2.03;;
12852;SDS011;6495;51.808;7.478;2023-05-24T04:55:32;6.83;;;1.90;;
12852;SDS011;6495;51.808;7.478;2023-05-24T04:58:02;4.63;;;2.33;;
12852;SDS011;6495;51.808;7.478;2023-05-24T05:00:30;4.43;;;2.58;;
12852;SDS011;6495;51.808;7.478;2023-05-24T05:02:59;6.03;;;2.10;;
12852;SDS011;6495;51.808;7.478;2023-05-24T05:05:27;4.25;;;2.03;;
12852;SDS011;6495;51.808;7.478;2023-05-24T05:07:55;7.35;;;2.78;;
12852;SDS011;6495;51.808;7.478;2023-05-24T05:10:23;9.25;;;2.45;;
12852;SDS011;6495;51.808;7.478;2023-05-24T05:12:52;5.57;;;2.80;;
12852;SDS011;6495;51.808;7.478;2023-05-24T05:15:22;4.97;;;2.35;;
12852;SDS011;6495;51.808;7.478;2023-05-24T05:17:51;4.93;;;2.50;;
12852;SDS011;6495;51.808;7.478;2023-05-24T05:20:19;6.88;;;2.72;;
12852;SDS011;6495;51.808;7.478;2023-05-24T05:22:49;8.90;;;2.70;;
12852;SDS011;6495;51.808;7.478;2023-05-24T05:25:17;8.07;;;2.53;;
12852;SDS011;6495;51.808;7.478;2023-05-24T05:27:45;12.80;;;2.70;;
12852;SDS011;6495;51.808;7.478;2023-05-24T05:30:14;8.73;;;2.50;;
12852;SDS011;6495;51.808;7.478;2023-05-24T05:32:43;8.82;;;2.55;;
12852;SDS011;6495;51.808;7.478;2023-05-24T05:35:12;5.13;;;2.80;;
12852;SDS011;6495;51.808;7.478;2023-05-24T05:37:40;6.22;;;2.67;;
12852;SDS011;6495;51.808;7.478;2023-05-24T05:40:08;6.95;;;2.22;;
12852;SDS011;6495;51.808;7.478;2023-05-24T05:42:37;8.63;;;2.60;;
12852;SDS011;6495;51.808;7.478;2023-05-24T05:45:06;6.32;;;2.70;;
12852;SDS011;6495;51.808;7.478;2023-05-24T05:47:35;7.28;;;2.65;;
12852;SDS011;6495;51.808;7.478;2023-05-24T05:50:05;5.50;;;2.58;;
12852;SDS011;6495;51.808;7.478;2023-05-24T05:52:34;8.02;;;2.40;;
12852;SDS011;6495;51.808;7.478;2023-05-24T05:55:02;6.50;;;2.42;;
12852;SDS011;6495;51.808;7.478;2023-05-24T05:57:31;7.60;;;2.88;;
12852;SDS011;6495;51.808;7.478;2023-05-24T05:59:59;5.70;;;2.83;;
12852;SDS011;6495;51.808;7.478;2023-05-24T06:02:37;6.75;;;2.45;;
12852;SDS011;6495;51.808;7.478;2023-05-24T06:05:07;9.35;;;2.50;;
12852;SDS011;6495;51.808;7.478;2023-05-24T06:07:35;10.98;;;2.75;;
12852;SDS011;6495;51.808;7.478;2023-05-24T06:10:04;5.40;;;2.75;;
12852;SDS011;6495;51.808;7.478;2023-05-24T06:12:33;8.93;;;3.00;;
12852;SDS011;6495;51.808;7.478;2023-05-24T06:15:03;10.43;;;3.25;;
12852;SDS011;6495;51.808;7.478;2023-05-24T06:17:33;5.85;;;3.10;;
12852;SDS011;6495;51.808;7.478;2023-05-24T06:20:03;10.98;;;2.25;;
12852;SDS011;6495;51.808;7.478;2023-05-24T06:22:34;9.10;;;2.90;;
12852;SDS011;6495;51.808;7.478;2023-05-24T06:25:05;7.68;;;2.75;;
12852;SDS011;6495;51.808;7.478;2023-05-24T06:27:34;7.15;;;3.10;;
12852;SDS011;6495;51.808;7.478;2023-05-24T06:30:02;6.28;;;2.40;;
12852;SDS011;6495;51.808;7.478;2023-05-24T06:32:32;10.60;;;3.22;;
12852;SDS011;6495;51.808;7.478;2023-05-24T06:35:00;10.90;;;2.88;;
12852;SDS011;6495;51.808;7.478;2023-05-24T06:37:29;8.25;;;3.25;;
12852;SDS011;6495;51.808;7.478;2023-05-24T06:40:00;8.65;;;3.10;;
12852;SDS011;6495;51.808;7.478;2023-05-24T06:42:30;14.15;;;3.17;;
12852;SDS011;6495;51.808;7.478;2023-05-24T06:44:58;12.40;;;3.80;;
12852;SDS011;6495;51.808;7.478;2023-05-24T06:47:26;5.45;;;2.60;;
12852;SDS011;6495;51.808;7.478;2023-05-24T06:49:55;8.07;;;2.80;;
12852;SDS011;6495;51.808;7.478;2023-05-24T06:52:23;9.18;;;2.42;;
12852;SDS011;6495;51.808;7.478;2023-05-24T06:54:51;11.40;;;3.22;;
12852;SDS011;6495;51.808;7.478;2023-05-24T06:57:21;11.23;;;2.65;;
12852;SDS011;6495;51.808;7.478;2023-05-24T06:59:49;11.70;;;3.05;;
12852;SDS011;6495;51.808;7.478;2023-05-24T07:02:17;14.45;;;3.53;;
12852;SDS011;6495;51.808;7.478;2023-05-24T07:04:51;8.18;;;2.60;;
12852;SDS011;6495;51.808;7.478;2023-05-24T07:07:20;9.35;;;2.65;;
12852;SDS011;6495;51.808;7.478;2023-05-24T07:09:48;7.03;;;2.67;;
12852;SDS011;6495;51.808;7.478;2023-05-24T07:12:16;9.80;;;3.10;;
12852;SDS011;6495;51.808;7.478;2023-05-24T07:14:48;10.05;;;2.80;;
12852;SDS011;6495;51.808;7.478;2023-05-24T07:17:16;7.97;;;3.35;;
12852;SDS011;6495;51.808;7.478;2023-05-24T07:19:45;10.55;;;2.75;;
12852;SDS011;6495;51.808;7.478;2023-05-24T07:22:13;11.65;;;3.08;;
12852;SDS011;6495;51.808;7.478;2023-05-24T07:24:41;9.32;;;3.65;;
12852;SDS011;6495;51.808;7.478;2023-05-24T07:27:10;6.35;;;3.13;;
12852;SDS011;6495;51.808;7.478;2023-05-24T07:29:38;11.85;;;3.15;;
12852;SDS011;6495;51.808;7.478;2023-05-24T07:32:07;8.95;;;2.55;;
12852;SDS011;6495;51.808;7.478;2023-05-24T07:34:36;13.50;;;3.10;;
12852;SDS011;6495;51.808;7.478;2023-05-24T07:37:04;10.18;;;2.80;;
12852;SDS011;6495;51.808;7.478;2023-05-24T07:39:33;6.43;;;2.50;;
12852;SDS011;6495;51.808;7.478;2023-05-24T07:42:01;13.40;;;3.42;;
12852;SDS011;6495;51.808;7.478;2023-05-24T07:44:29;8.95;;;2.92;;
12852;SDS011;6495;51.808;7.478;2023-05-24T07:46:57;10.20;;;3.03;;
12852;SDS011;6495;51.808;7.478;2023-05-24T07:49:28;21.40;;;3.17;;
12852;SDS011;6495;51.808;7.478;2023-05-24T07:51:57;6.72;;;2.60;;
12852;SDS011;6495;51.808;7.478;2023-05-24T07:54:25;11.43;;;2.58;;
12852;SDS011;6495;51.808;7.478;2023-05-24T07:56:53;9.23;;;2.80;;
12852;SDS011;6495;51.808;7.478;2023-05-24T07:59:22;7.60;;;2.38;;
12852;SDS011;6495;51.808;7.478;2023-05-24T08:01:51;14.93;;;2.90;;
12852;SDS011;6495;51.808;7.478;2023-05-24T08:04:19;8.02;;;2.38;;
12852;SDS011;6495;51.808;7.478;2023-05-24T08:06:50;7.50;;;2.22;;
12852;SDS011;6495;51.808;7.478;2023-05-24T08:09:18;7.72;;;2.50;;
12852;SDS011;6495;51.808;7.478;2023-05-24T08:11:47;12.23;;;2.42;;
12852;SDS011;6495;51.808;7.478;2023-05-24T08:14:16;11.43;;;3.00;;
12852;SDS011;6495;51.808;7.478;2023-05-24T08:16:44;7.72;;;2.30;;
12852;SDS011;6495;51.808;7.478;2023-05-24T08:19:12;4.70;;;2.50;;
12852;SDS011;6495;51.808;7.478;2023-05-24T08:21:40;8.57;;;2.53;;
12852;SDS011;6495;51.808;7.478;2023-05-24T08:24:10;5.60;;;2.65;;
12852;SDS011;6495;51.808;7.478;2023-05-24T08:26:38;8.10;;;2.45;;
12852;SDS011;6495;51.808;7.478;2023-05-24T08:29:08;11.77;;;2.20;;
12852;SDS011;6495;51.808;7.478;2023-05-24T08:31:37;12.13;;;3.15;;
12852;SDS011;6495;51.808;7.478;2023-05-24T08:34:05;10.55;;;2.60;;
12852;SDS011;6495;51.808;7.478;2023-05-24T08:36:34;13.73;;;2.70;;
12852;SDS011;6495;51.808;7.478;2023-05-24T08:39:02;10.90;;;2.60;;
12852;SDS011;6495;51.808;7.478;2023-05-24T08:41:33;6.90;;;2.72;;
12852;SDS011;6495;51.808;7.478;2023-05-24T08:44:02;8.15;;;2.22;;
12852;SDS011;6495;51.808;7.478;2023-05-24T08:46:33;11.50;;;2.85;;
12852;SDS011;6495;51.808;7.478;2023-05-24T08:49:02;7.05;;;2.90;;
12852;SDS011;6495;51.808;7.478;2023-05-24T08:51:33;12.95;;;2.75;;
12852;SDS011;6495;51.808;7.478;2023-05-24T08:54:04;9.60;;;2.53;;
12852;SDS011;6495;51.808;7.478;2023-05-24T08:56:35;7.68;;;2.40;;
12852;SDS011;6495;51.808;7.478;2023-05-24T08:59:05;9.02;;;2.70;;
12852;SDS011;6495;51.808;7.478;2023-05-24T09:01:35;8.25;;;2.45;;
12852;SDS011;6495;51.808;7.478;2023-05-24T09:04:05;15.40;;;2.78;;
12852;SDS011;6495;51.808;7.478;2023-05-24T09:06:35;9.50;;;2.35;;
12852;SDS011;6495;51.808;7.478;2023-05-24T09:09:03;9.18;;;2.60;;
12852;SDS011;6495;51.808;7.478;2023-05-24T09:11:36;11.27;;;2.72;;
12852;SDS011;6495;51.808;7.478;2023-05-24T09:14:07;14.32;;;2.95;;
12852;SDS011;6495;51.808;7.478;2023-05-24T09:16:36;8.00;;;2.83;;
12852;SDS011;6495;51.808;7.478;2023-05-24T09:19:04;16.15;;;2.97;;
12852;SDS011;6495;51.808;7.478;2023-05-24T09:21:33;8.13;;;2.47;;
12852;SDS011;6495;51.808;7.478;2023-05-24T09:24:01;10.25;;;3.05;;
12852;SDS011;6495;51.808;7.478;2023-05-24T09:26:34;7.22;;;2.50;;
12852;SDS011;6495;51.808;7.478;2023-05-24T09:29:05;7.38;;;2.15;;
12852;SDS011;6495;51.808;7.478;2023-05-24T09:31:35;12.85;;;2.63;;
12852;SDS011;6495;51.808;7.478;2023-05-24T09:34:08;8.13;;;2.80;;
12852;SDS011;6495;51.808;7.478;2023-05-24T09:36:42;11.77;;;3.03;;
12852;SDS011;6495;51.808;7.478;2023-05-24T09:39:13;10.65;;;2.75;;
12852;SDS011;6495;51.808;7.478;2023-05-24T09:41:50;5.13;;;2.55;;
12852;SDS011;6495;51.808;7.478;2023-05-24T09:44:23;8.82;;;2.70;;
12852;SDS011;6495;51.808;7.478;2023-05-24T09:46:53;8.18;;;2.70;;
12852;SDS011;6495;51.808;7.478;2023-05-24T09:49:30;10.27;;;3.35;;
12852;SDS011;6495;51.808;7.478;2023-05-24T09:51:59;7.90;;;3.10;;
12852;SDS011;6495;51.808;7.478;2023-05-24T09:54:28;8.88;;;2.97;;
12852;SDS011;6495;51.808;7.478;2023-05-24T09:57:02;8.80;;;2.47;;
12852;SDS011;6495;51.808;7.478;2023-05-24T09:59:32;8.25;;;2.97;;
12852;SDS011;6495;51.808;7.478;2023-05-24T10:02:07;9.05;;;2.65;;
12852;SDS011;6495;51.808;7.478;2023-05-24T10:04:36;8.23;;;2.63;;
12852;SDS011;6495;51.808;7.478;2023-05-24T10:07:05;8.52;;;2.78;;
12852;SDS011;6495;51.808;7.478;2023-05-24T10:09:34;9.02;;;2.83;;
12852;SDS011;6495;51.808;7.478;2023-05-24T10:12:05;11.23;;;2.85;;
12852;SDS011;6495;51.808;7.478;2023-05-24T10:14:35;9.27;;;2.75;;
12852;SDS011;6495;51.808;7.478;2023-05-24T10:17:04;8.48;;;2.50;;
12852;SDS011;6495;51.808;7.478;2023-05-24T10:19:34;7.72;;;2.60;;
12852;SDS011;6495;51.808;7.478;2023-05-24T10:22:05;9.38;;;2.80;;
12852;SDS011;6495;51.808;7.478;2023-05-24T10:24:37;7.95;;;2.40;;
12852;SDS011;6495;51.808;7.478;2023-05-24T10:27:13;11.40;;;2.95;;
12852;SDS011;6495;51.808;7.478;2023-05-24T10:29:47;13.18;;;2.80;;
12852;SDS011;6495;51.808;7.478;2023-05-24T10:32:35;8.18;;;2.90;;
12852;SDS011;6495;51.808;7.478;2023-05-24T10:35:05;5.15;;;2.53;;
12852;SDS011;6495;51.808;7.478;2023-05-24T10:37:37;10.38;;;2.72;;
12852;SDS011;6495;51.808;7.478;2023-05-24T10:40:06;9.20;;;2.55;;
12852;SDS011;6495;51.808;7.478;2023-05-24T10:42:46;10.00;;;2.72;;
12852;SDS011;6495;51.808;7.478;2023-05-24T10:45:28;5.75;;;2.72;;
12852;SDS011;6495;51.808;7.478;2023-05-24T10:48:06;7.28;;;2.80;;
12852;SDS011;6495;51.808;7.478;2023-05-24T10:50:56;9.52;;;2.35;;
12852;SDS011;6495;51.808;7.478;2023-05-24T10:53:28;10.27;;;3.13;;
12852;SDS011;6495;51.808;7.478;2023-05-24T10:56:07;8.75;;;2.28;;
12852;SDS011;6495;51.808;7.478;2023-05-24T10:58:44;8.23;;;2.40;;
12852;SDS011;6495;51.808;7.478;2023-05-24T11:01:26;14.90;;;3.42;;
12852;SDS011;6495;51.808;7.478;2023-05-24T11:04:07;8.68;;;2.47;;
12852;SDS011;6495;51.808;7.478;2023-05-24T11:06:47;8.98;;;3.00;;
12852;SDS011;6495;51.808;7.478;2023-05-24T11:09:16;6.00;;;2.30;;
12852;SDS011;6495;51.808;7.478;2023-05-24T11:11:46;9.88;;;2.95;;
12852;SDS011;6495;51.808;7.478;2023-05-24T11:14:21;7.10;;;3.00;;
12852;SDS011;6495;51.808;7.478;2023-05-24T11:16:55;9.13;;;3.03;;
12852;SDS011;6495;51.808;7.478;2023-05-24T11:19:29;10.40;;;3.03;;
12852;SDS011;6495;51.808;7.478;2023-05-24T11:22:00;8.55;;;2.80;;
12852;SDS011;6495;51.808;7.478;2023-05-24T11:24:31;12.40;;;2.88;;
12852;SDS011;6495;51.808;7.478;2023-05-24T11:27:00;13.95;;;3.60;;
12852;SDS011;6495;51.808;7.478;2023-05-24T11:29:30;10.02;;;3.05;;
12852;SDS011;6495;51.808;7.478;2023-05-24T11:32:02;6.82;;;2.40;;
12852;SDS011;6495;51.808;7.478;2023-05-24T11:34:31;10.52;;;3.60;;
12852;SDS011;6495;51.808;7.478;2023-05-24T11:37:00;5.68;;;2.70;;
12852;SDS011;6495;51.808;7.478;2023-05-24T11:39:31;8.35;;;2.70;;
12852;SDS011;6495;51.808;7.478;2023-05-24T11:42:02;7.63;;;2.63;;
12852;SDS011;6495;51.808;7.478;2023-05-24T11:44:34;5.00;;;2.85;;
12852;SDS011;6495;51.808;7.478;2023-05-24T11:47:05;12.88;;;2.83;;
12852;SDS011;6495;51.808;7.478;2023-05-24T11:49:34;7.10;;;2.72;;
12852;SDS011;6495;51.808;7.478;2023-05-24T11:52:03;7.47;;;3.03;;
12852;SDS011;6495;51.808;7.478;2023-05-24T11:54:31;7.30;;;2.55;;
12852;SDS011;6495;51.808;7.478;2023-05-24T11:57:00;10.30;;;2.95;;
12852;SDS011;6495;51.808;7.478;2023-05-24T11:59:28;6.70;;;2.63;;
12852;SDS011;6495;51.808;7.478;2023-05-24T12:01:58;3.83;;;2.40;;
12852;SDS011;6495;51.808;7.478;2023-05-24T12:04:30;9.00;;;2.67;;
12852;SDS011;6495;51.808;7.478;2023-05-24T12:07:00;6.50;;;2.55;;
12852;SDS011;6495;51.808;7.478;2023-05-24T12:09:29;6.55;;;2.67;;
12852;SDS011;6495;51.808;7.478;2023-05-24T12:11:57;6.18;;;2.95;;
12852;SDS011;6495;51.808;7.478;2023-05-24T12:14:27;13.02;;;3.22;;
12852;SDS011;6495;51.808;7.478;2023-05-24T12:17:01;7.15;;;2.58;;
12852;SDS011;6495;51.808;7.478;2023-05-24T12:19:30;8.23;;;2.55;;
12852;SDS011;6495;51.808;7.478;2023-05-24T12:22:05;9.63;;;3.25;;
12852;SDS011;6495;51.808;7.478;2023-05-24T12:24:36;9.10;;;2.95;;
12852;SDS011;6495;51.808;7.478;2023-05-24T12:27:04;9.23;;;3.00;;
12852;SDS011;6495;51.808;7.478;2023-05-24T12:29:34;7.55;;;3.10;;
12852;SDS011;6495;51.808;7.478;2023-05-24T12:32:06;6.75;;;2.47;;
12852;SDS011;6495;51.808;7.478;2023-05-24T12:34:40;6.95;;;3.10;;
12852;SDS011;6495;51.808;7.478;2023-05-24T12:37:10;8.00;;;2.58;;
12852;SDS011;6495;51.808;7.478;2023-05-24T12:39:39;7.75;;;2.72;;
12852;SDS011;6495;51.808;7.478;2023-05-24T12:42:10;10.77;;;2.95;;
12852;SDS011;6495;51.808;7.478;2023-05-24T12:44:39;10.73;;;2.55;;
12852;SDS011;6495;51.808;7.478;2023-05-24T12:47:11;10.25;;;3.08;;
12852;SDS011;6495;51.808;7.478;2023-05-24T12:49:40;6.97;;;3.10;;
12852;SDS011;6495;51.808;7.478;2023-05-24T12:52:08;7.25;;;2.80;;
12852;SDS011;6495;51.808;7.478;2023-05-24T12:54:38;8.32;;;2.90;;
12852;SDS011;6495;51.808;7.478;2023-05-24T12:57:07;9.05;;;3.17;;
12852;SDS011;6495;51.808;7.478;2023-05-24T12:59:35;10.68;;;2.90;;
12852;SDS011;6495;51.808;7.478;2023-05-24T13:02:03;10.15;;;2.30;;
12852;SDS011;6495;51.808;7.478;2023-05-24T13:04:33;11.77;;;3.00;;
12852;SDS011;6495;51.808;7.478;2023-05-24T13:07:02;8.38;;;3.05;;
12852;SDS011;6495;51.808;7.478;2023-05-24T13:09:30;13.82;;;3.53;;
12852;SDS011;6495;51.808;7.478;2023-05-24T13:11:59;8.82;;;2.45;;
12852;SDS011;6495;51.808;7.478;2023-05-24T13:14:28;8.57;;;3.05;;
12852;SDS011;6495;51.808;7.478;2023-05-24T13:16:56;6.13;;;3.10;;
12852;SDS011;6495;51.808;7.478;2023-05-24T13:19:24;10.95;;;3.05;;
12852;SDS011;6495;51.808;7.478;2023-05-24T13:21:54;7.95;;;3.03;;
12852;SDS011;6495;51.808;7.478;2023-05-24T13:24:22;10.57;;;3.15;;
12852;SDS011;6495;51.808;7.478;2023-05-24T13:26:50;9.05;;;2.70;;
12852;SDS011;6495;51.808;7.478;2023-05-24T13:29:20;8.88;;;3.40;;
12852;SDS011;6495;51.808;7.478;2023-05-24T13:31:52;8.85;;;3.35;;
12852;SDS011;6495;51.808;7.478;2023-05-24T13:34:20;5.75;;;2.97;;
12852;SDS011;6495;51.808;7.478;2023-05-24T13:36:49;6.10;;;2.85;;
12852;SDS011;6495;51.808;7.478;2023-05-24T13:39:20;7.72;;;2.90;;
12852;SDS011;6495;51.808;7.478;2023-05-24T13:41:49;11.38;;;3.47;;
12852;SDS011;6495;51.808;7.478;2023-05-24T13:44:17;14.55;;;2.83;;
12852;SDS011;6495;51.808;7.478;2023-05-24T13:46:45;8.07;;;3.10;;
12852;SDS011;6495;51.808;7.478;2023-05-24T13:49:14;7.82;;;2.80;;
12852;SDS011;6495;51.808;7.478;2023-05-24T13:51:42;9.00;;;2.90;;
12852;SDS011;6495;51.808;7.478;2023-05-24T13:54:10;6.38;;;2.75;;
12852;SDS011;6495;51.808;7.478;2023-05-24T13:56:40;9.93;;;2.80;;
12852;SDS011;6495;51.808;7.478;2023-05-24T13:59:10;13.20;;;3.17;;
12852;SDS011;6495;51.808;7.478;2023-05-24T14:01:38;8.65;;;3.38;;
12852;SDS011;6495;51.808;7.478;2023-05-24T14:04:07;9.55;;;3.08;;
12852;SDS011;6495;51.808;7.478;2023-05-24T14:06:35;10.13;;;3.28;;
12852;SDS011;6495;51.808;7.478;2023-05-24T14:09:04;6.13;;;2.38;;
12852;SDS011;6495;51.808;7.478;2023-05-24T14:11:33;6.68;;;2.55;;
12852;SDS011;6495;51.808;7.478;2023-05-24T14:14:06;5.47;;;2.70;;
12852;SDS011;6495;51.808;7.478;2023-05-24T14:16:37;7.28;;;3.10;;
12852;SDS011;6495;51.808;7.478;2023-05-24T14:19:05;9.88;;;2.78;;
12852;SDS011;6495;51.808;7.478;2023-05-24T14:21:33;9.40;;;3.00;;
12852;SDS011;6495;51.808;7.478;2023-05-24T14:24:02;7.82;;;3.50;;
12852;SDS011;6495;51.808;7.478;2023-05-24T14:26:30;5.20;;;2.58;;
12852;SDS011;6495;51.808;7.478;2023-05-24T14:28:59;12.43;;;2.72;;
12852;SDS011;6495;51.808;7.478;2023-05-24T14:31:28;12.85;;;2.97;;
12852;SDS011;6495;51.808;7.478;2023-05-24T14:33:56;7.50;;;2.95;;
12852;SDS011;6495;51.808;7.478;2023-05-24T14:36:25;8.60;;;2.75;;
12852;SDS011;6495;51.808;7.478;2023-05-24T14:38:53;7.30;;;3.15;;
12852;SDS011;6495;51.808;7.478;2023-05-24T14:41:21;7.35;;;2.90;;
12852;SDS011;6495;51.808;7.478;2023-05-24T14:43:49;7.90;;;2.95;;
12852;SDS011;6495;51.808;7.478;2023-05-24T14:46:17;7.20;;;3.00;;
12852;SDS011;6495;51.808;7.478;2023-05-24T14:48:47;6.95;;;2.70;;
12852;SDS011;6495;51.808;7.478;2023-05-24T14:51:15;8.63;;;3.05;;
12852;SDS011;6495;51.808;7.478;2023-05-24T14:53:44;7.40;;;3.03;;
12852;SDS011;6495;51.808;7.478;2023-05-24T14:56:12;9.90;;;2.88;;
12852;SDS011;6495;51.808;7.478;2023-05-24T14:58:41;6.90;;;2.72;;
12852;SDS011;6495;51.808;7.478;2023-05-24T15:01:09;8.13;;;3.08;;
12852;SDS011;6495;51.808;7.478;2023-05-24T15:03:38;4.75;;;2.33;;
12852;SDS011;6495;51.808;7.478;2023-05-24T15:06:08;8.63;;;2.63;;
12852;SDS011;6495;51.808;7.478;2023-05-24T15:08:36;6.63;;;2.80;;
12852;SDS011;6495;51.808;7.478;2023-05-24T15:11:04;6.75;;;2.92;;
12852;SDS011;6495;51.808;7.478;2023-05-24T15:13:32;10.13;;;3.00;;
12852;SDS011;6495;51.808;7.478;2023-05-24T15:16:01;7.93;;;2.92;;
12852;SDS011;6495;51.808;7.478;2023-05-24T15:18:32;7.97;;;3.05;;
12852;SDS011;6495;51.808;7.478;2023-05-24T15:21:00;8.45;;;2.75;;
12852;SDS011;6495;51.808;7.478;2023-05-24T15:23:35;7.45;;;2.55;;
12852;SDS011;6495;51.808;7.478;2023-05-24T15:26:09;7.10;;;2.67;;
12852;SDS011;6495;51.808;7.478;2023-05-24T15:28:46;6.18;;;2.50;;
12852;SDS011;6495;51.808;7.478;2023-05-24T15:31:29;7.93;;;2.85;;
12852;SDS011;6495;51.808;7.478;2023-05-24T15:34:03;10.10;;;3.08;;
12852;SDS011;6495;51.808;7.478;2023-05-24T15:36:39;5.13;;;2.58;;
12852;SDS011;6495;51.808;7.478;2023-05-24T15:39:13;5.95;;;2.50;;
12852;SDS011;6495;51.808;7.478;2023-05-24T15:41:44;7.80;;;2.60;;